createdAt,value
2018-10-02T00:00:33.107Z,100698.00
2018-10-02T00:03:03.302Z,100699.00
2018-10-02T00:05:33.626Z,100688.00
2018-10-02T00:08:03.600Z,100686.00
2018-10-02T00:10:33.830Z,100683.00
2018-10-02T00:13:09.270Z,100675.00
2018-10-02T00:15:39.259Z,100654.00
2018-10-02T00:18:09.857Z,100663.00
2018-10-02T00:20:39.871Z,100663.00
2018-10-02T00:23:10.146Z,100663.00
2018-10-02T00:25:40.455Z,100660.00
2018-10-02T00:28:10.906Z,100673.00
2018-10-02T00:30:41.831Z,100687.00
2018-10-02T00:33:13.510Z,100671.00
2018-10-02T00:35:44.184Z,100670.00
2018-10-02T00:38:15.145Z,100662.00
2018-10-02T00:40:45.064Z,100656.00
2018-10-02T00:43:16.354Z,100637.00
2018-10-02T00:45:46.514Z,100623.00
2018-10-02T00:48:16.964Z,100617.00
2018-10-02T00:50:46.842Z,100618.00
2018-10-02T00:53:16.919Z,100633.00
2018-10-02T00:55:47.242Z,100606.00
2018-10-02T00:58:17.394Z,100589.00
2018-10-02T01:00:47.965Z,100577.00
2018-10-02T01:03:19.124Z,100572.00
2018-10-02T01:05:49.507Z,100575.00
2018-10-02T01:08:19.744Z,100581.00
2018-10-02T01:10:50.658Z,100570.00
2018-10-02T01:13:21.984Z,100570.00
2018-10-02T01:15:52.235Z,100575.00
2018-10-02T01:18:22.359Z,100561.00
2018-10-02T01:20:52.514Z,100546.00
2018-10-02T01:23:22.769Z,100549.00
2018-10-02T01:25:54.087Z,100531.00
2018-10-02T01:28:24.262Z,100529.00
2018-10-02T01:30:54.672Z,100525.00
2018-10-02T01:33:24.692Z,100534.00
2018-10-02T01:35:54.825Z,100529.00
2018-10-02T01:38:24.969Z,100522.00
2018-10-02T01:40:55.119Z,100522.00
2018-10-02T01:43:25.250Z,100535.00
2018-10-02T01:45:55.078Z,100520.00
2018-10-02T01:48:25.193Z,100506.00
2018-10-02T01:50:56.907Z,100507.00
2018-10-02T01:53:27.483Z,100504.00
2018-10-02T01:55:57.673Z,100507.00
2018-10-02T01:58:27.791Z,100502.00
2018-10-02T02:00:57.857Z,100498.00
2018-10-02T02:03:28.038Z,100491.00
2018-10-02T02:05:58.636Z,100497.00
2018-10-02T02:08:29.000Z,100486.00
2018-10-02T02:10:59.159Z,100500.00
2018-10-02T02:13:29.151Z,100502.00
2018-10-02T02:15:59.276Z,100479.00
2018-10-02T02:18:29.590Z,100492.00
2018-10-02T02:20:59.896Z,100490.00
2018-10-02T02:23:32.930Z,100488.00
2018-10-02T02:26:05.011Z,100489.00
2018-10-02T02:28:35.115Z,100486.00
2018-10-02T02:31:05.361Z,100492.00
2018-10-02T02:33:36.092Z,100492.00
2018-10-02T02:36:06.140Z,100485.00
2018-10-02T02:38:36.395Z,100477.00
2018-10-02T02:41:06.781Z,100486.00
2018-10-02T02:43:37.006Z,100481.00
2018-10-02T02:46:07.370Z,100479.00
2018-10-02T02:48:42.784Z,100481.00
2018-10-02T02:51:18.575Z,100474.00
2018-10-02T02:53:49.066Z,100475.00
2018-10-02T02:56:19.465Z,100478.00
2018-10-02T02:58:50.051Z,100470.00
2018-10-02T03:01:20.912Z,100470.00
2018-10-02T03:03:51.343Z,100459.00
2018-10-02T03:06:21.658Z,100467.00
2018-10-02T03:08:52.187Z,100460.00
2018-10-02T03:11:22.833Z,100464.00
2018-10-02T03:13:53.202Z,100467.00
2018-10-02T03:16:23.394Z,100456.00
2018-10-02T03:18:54.536Z,100450.00
2018-10-02T03:21:24.909Z,100454.00
2018-10-02T03:23:55.784Z,100465.00
2018-10-02T03:26:26.263Z,100458.00
2018-10-02T03:28:57.038Z,100455.00
2018-10-02T03:31:27.482Z,100443.00
2018-10-02T03:33:57.925Z,100441.00
2018-10-02T03:36:28.730Z,100441.00
2018-10-02T03:38:59.051Z,100439.00
2018-10-02T03:41:29.352Z,100436.00
2018-10-02T03:44:00.171Z,100438.00
2018-10-02T03:46:30.362Z,100441.00
2018-10-02T03:49:00.470Z,100435.00
2018-10-02T03:51:30.541Z,100435.00
2018-10-02T03:54:00.837Z,100431.00
2018-10-02T03:56:31.262Z,100437.00
2018-10-02T03:59:01.337Z,100435.00
2018-10-02T04:01:31.661Z,100430.00
2018-10-02T04:04:01.953Z,100424.00
2018-10-02T04:06:31.969Z,100430.00
2018-10-02T04:09:02.195Z,100436.00
2018-10-02T04:11:32.321Z,100428.00
2018-10-02T04:14:02.402Z,100428.00
2018-10-02T04:16:32.519Z,100423.00
2018-10-02T04:19:02.667Z,100424.00
2018-10-02T04:21:35.683Z,100426.00
2018-10-02T04:24:07.478Z,100436.00
2018-10-02T04:26:38.253Z,100430.00
2018-10-02T04:29:08.625Z,100423.00
2018-10-02T04:31:39.105Z,100433.00
2018-10-02T04:34:09.728Z,100433.00
2018-10-02T04:36:39.790Z,100431.00
2018-10-02T04:39:10.559Z,100432.00
2018-10-02T04:41:40.681Z,100428.00
2018-10-02T04:44:11.472Z,100428.00
2018-10-02T04:46:41.857Z,100436.00
2018-10-02T04:49:11.936Z,100433.00
2018-10-02T04:51:42.702Z,100439.00
2018-10-02T04:54:12.665Z,100432.00
2018-10-02T04:56:42.856Z,100432.00
2018-10-02T04:59:13.131Z,100431.00
2018-10-02T05:01:43.614Z,100442.00
2018-10-02T05:04:14.139Z,100435.00
2018-10-02T05:06:44.234Z,100440.00
2018-10-02T05:09:21.752Z,100434.00
2018-10-02T05:11:51.918Z,100439.00
2018-10-02T05:14:22.002Z,100446.00
2018-10-02T05:16:52.013Z,100432.00
2018-10-02T05:19:22.314Z,100435.00
2018-10-02T05:21:52.711Z,100430.00
2018-10-02T05:24:23.262Z,100438.00
2018-10-02T05:26:53.519Z,100434.00
2018-10-02T05:29:24.325Z,100434.00
2018-10-02T05:31:54.778Z,100431.00
2018-10-02T05:34:24.755Z,100437.00
2018-10-02T05:36:56.783Z,100437.00
2018-10-02T05:39:27.283Z,100439.00
2018-10-02T05:41:57.450Z,100429.00
2018-10-02T05:44:27.448Z,100448.00
2018-10-02T05:46:57.636Z,100425.00
2018-10-02T05:49:28.327Z,100441.00
2018-10-02T05:51:58.830Z,100446.00
2018-10-02T05:54:29.019Z,100447.00
2018-10-02T05:56:59.100Z,100449.00
2018-10-02T05:59:29.269Z,100443.00
2018-10-02T06:01:59.758Z,100450.00
2018-10-02T06:04:29.980Z,100455.00
2018-10-02T06:07:00.190Z,100459.00
2018-10-02T06:09:30.285Z,100469.00
2018-10-02T06:12:01.230Z,100473.00
2018-10-02T06:14:31.471Z,100474.00
2018-10-02T06:17:01.837Z,100463.00
2018-10-02T06:19:31.797Z,100463.00
2018-10-02T06:22:01.858Z,100462.00
2018-10-02T06:24:32.219Z,100465.00
2018-10-02T06:27:02.404Z,100466.00
2018-10-02T06:29:33.129Z,100469.00
2018-10-02T06:32:04.023Z,100463.00
2018-10-02T06:34:34.093Z,100467.00
2018-10-02T06:37:04.877Z,100468.00
2018-10-02T06:39:35.024Z,100473.00
2018-10-02T06:42:05.053Z,100460.00
2018-10-02T06:44:35.595Z,100472.00
2018-10-02T06:47:06.236Z,100476.00
2018-10-02T06:49:36.667Z,100487.00
2018-10-02T06:52:07.196Z,100487.00
2018-10-02T06:54:37.392Z,100486.00
2018-10-02T06:57:07.865Z,100476.00
2018-10-02T06:59:38.160Z,100476.00
2018-10-02T07:02:08.369Z,100493.00
2018-10-02T07:04:39.882Z,100479.00
2018-10-02T07:07:10.279Z,100490.00
2018-10-02T07:09:40.482Z,100485.00
2018-10-02T07:12:10.588Z,100507.00
2018-10-02T07:14:40.959Z,100501.00
2018-10-02T07:17:11.078Z,100489.00
2018-10-02T07:19:41.782Z,100500.00
2018-10-02T07:22:12.070Z,100487.00
2018-10-02T07:24:42.589Z,100491.00
2018-10-02T07:27:13.267Z,100501.00
2018-10-02T07:29:43.319Z,100507.00
2018-10-02T07:32:13.451Z,100490.00
2018-10-02T07:34:43.669Z,100491.00
2018-10-02T07:37:14.498Z,100494.00
2018-10-02T07:39:46.256Z,100495.00
2018-10-02T07:42:16.573Z,100499.00
2018-10-02T07:44:47.556Z,100494.00
2018-10-02T07:47:17.562Z,100500.00
2018-10-02T07:49:48.602Z,100501.00
2018-10-02T07:52:18.802Z,100503.00
2018-10-02T07:54:49.099Z,100518.00
2018-10-02T07:57:19.685Z,100506.00
2018-10-02T07:59:50.936Z,100515.00
2018-10-02T08:02:21.252Z,100507.00
2018-10-02T08:04:52.064Z,100525.00
2018-10-02T08:07:22.798Z,100517.00
2018-10-02T08:09:52.941Z,100531.00
2018-10-02T08:12:23.491Z,100508.00
2018-10-02T08:14:53.688Z,100514.00
2018-10-02T08:17:24.006Z,100520.00
2018-10-02T08:19:57.208Z,100519.00
2018-10-02T08:22:27.438Z,100522.00
2018-10-02T08:24:58.067Z,100517.00
2018-10-02T08:27:28.606Z,100517.00
2018-10-02T08:29:58.879Z,100513.00
2018-10-02T08:32:29.124Z,100528.00
2018-10-02T08:34:59.243Z,100519.00
2018-10-02T08:37:29.466Z,100518.00
2018-10-02T08:39:59.887Z,100526.00
2018-10-02T08:42:30.244Z,100535.00
2018-10-02T08:45:00.572Z,100521.00
2018-10-02T08:47:30.800Z,100534.00
2018-10-02T08:50:00.871Z,100536.00
2018-10-02T08:52:31.923Z,100541.00
2018-10-02T08:55:02.916Z,100540.00
2018-10-02T08:57:33.007Z,100542.00
2018-10-02T09:00:03.853Z,100540.00
2018-10-02T09:02:34.214Z,100545.00
2018-10-02T09:05:04.337Z,100544.00
2018-10-02T09:07:34.999Z,100537.00
2018-10-02T09:10:05.345Z,100539.00
2018-10-02T09:12:35.618Z,100536.00
2018-10-02T09:15:12.154Z,100545.00
2018-10-02T09:17:36.323Z,100539.00
2018-10-02T09:20:06.849Z,100550.00
2018-10-02T09:22:37.350Z,100577.00
2018-10-02T09:25:07.446Z,100568.00
2018-10-02T09:27:37.583Z,100567.00
2018-10-02T09:30:12.954Z,100554.00
2018-10-02T09:32:48.148Z,100564.00
2018-10-02T09:35:23.281Z,100570.00
2018-10-02T09:37:58.628Z,100568.00
2018-10-02T09:40:40.784Z,100566.00
2018-10-02T09:43:16.341Z,100565.00
2018-10-02T09:45:46.946Z,100564.00
2018-10-02T09:48:17.496Z,100581.00
2018-10-02T09:50:54.570Z,100576.00
2018-10-02T09:53:24.582Z,100576.00
2018-10-02T09:55:54.816Z,100580.00
2018-10-02T09:58:25.436Z,100569.00
2018-10-02T10:01:00.711Z,100592.00
2018-10-02T10:03:31.401Z,100599.00
2018-10-02T10:06:02.097Z,100605.00
2018-10-02T10:08:33.784Z,100606.00
2018-10-02T10:11:04.344Z,100609.00
2018-10-02T10:13:34.702Z,100616.00
2018-10-02T10:16:05.040Z,100619.00
2018-10-02T10:18:35.226Z,100623.00
2018-10-02T10:21:05.386Z,100632.00
2018-10-02T10:23:36.583Z,100619.00
2018-10-02T10:26:06.976Z,100620.00
2018-10-02T10:28:36.972Z,100609.00
2018-10-02T10:31:06.990Z,100621.00
2018-10-02T10:33:37.237Z,100629.00
2018-10-02T10:36:07.680Z,100628.00
2018-10-02T10:38:37.627Z,100630.00
2018-10-02T10:41:07.772Z,100643.00
2018-10-02T10:43:38.298Z,100625.00
2018-10-02T10:46:08.547Z,100628.00
2018-10-02T10:48:38.827Z,100637.00
2018-10-02T10:51:08.892Z,100640.00
2018-10-02T10:53:39.142Z,100637.00
2018-10-02T10:56:09.802Z,100627.00
2018-10-02T10:58:40.420Z,100632.00
2018-10-02T11:01:11.050Z,100639.00
2018-10-02T11:03:41.683Z,100635.00
2018-10-02T11:06:11.760Z,100642.00
2018-10-02T11:08:42.310Z,100650.00
2018-10-02T11:11:12.273Z,100647.00
2018-10-02T11:13:42.904Z,100655.00
2018-10-02T11:16:13.087Z,100653.00
2018-10-02T11:18:43.490Z,100638.00
2018-10-02T11:21:13.642Z,100660.00
2018-10-02T11:23:43.774Z,100666.00
2018-10-02T11:26:14.583Z,100659.00
2018-10-02T11:28:44.853Z,100665.00
2018-10-02T11:31:15.072Z,100657.00
2018-10-02T11:33:45.189Z,100651.00
2018-10-02T11:36:15.662Z,100634.00
2018-10-02T11:38:47.091Z,100649.00
2018-10-02T11:41:17.159Z,100644.00
2018-10-02T11:43:47.454Z,100645.00
2018-10-02T11:46:18.124Z,100655.00
2018-10-02T11:48:48.409Z,100662.00
2018-10-02T11:51:18.488Z,100655.00
2018-10-02T11:53:48.721Z,100642.00
2018-10-02T11:56:18.739Z,100663.00
2018-10-02T11:58:49.337Z,100663.00
2018-10-02T12:01:19.938Z,100657.00
2018-10-02T12:03:50.255Z,100664.00
2018-10-02T12:06:21.213Z,100674.00
2018-10-02T12:08:52.353Z,100673.00
2018-10-02T12:11:22.667Z,100659.00
2018-10-02T12:13:53.784Z,100651.00
2018-10-02T12:16:24.148Z,100664.00
2018-10-02T12:18:54.764Z,100639.00
2018-10-02T12:21:25.215Z,100654.00
2018-10-02T12:23:55.469Z,100650.00
2018-10-02T12:26:26.334Z,100649.00
2018-10-02T12:28:56.908Z,100651.00
2018-10-02T12:31:28.065Z,100642.00
2018-10-02T12:33:58.310Z,100648.00
2018-10-02T12:36:28.501Z,100650.00
2018-10-02T12:38:58.691Z,100654.00
2018-10-02T12:41:28.999Z,100656.00
2018-10-02T12:43:59.347Z,100656.00
2018-10-02T12:46:30.448Z,100654.00
2018-10-02T12:49:00.501Z,100648.00
2018-10-02T12:51:30.925Z,100641.00
2018-10-02T12:54:00.899Z,100642.00
2018-10-02T12:56:31.010Z,100641.00
2018-10-02T12:59:00.960Z,100643.00
2018-10-02T13:01:31.480Z,100650.00
2018-10-02T13:04:01.920Z,100654.00
2018-10-02T13:06:32.036Z,100644.00
2018-10-02T13:09:02.544Z,100651.00
2018-10-02T13:11:32.681Z,100641.00
2018-10-02T13:14:03.314Z,100631.00
2018-10-02T13:16:33.938Z,100628.00
2018-10-02T13:19:04.202Z,100621.00
2018-10-02T13:21:34.180Z,100628.00
2018-10-02T13:24:04.341Z,100631.00
2018-10-02T13:26:34.602Z,100633.00
2018-10-02T13:29:05.308Z,100634.00
2018-10-02T13:31:35.531Z,100641.00
2018-10-02T13:34:05.839Z,100651.00
2018-10-02T13:36:35.978Z,100656.00
2018-10-02T13:39:08.458Z,100655.00
2018-10-02T13:41:38.689Z,100660.00
2018-10-02T13:44:09.303Z,100646.00
2018-10-02T13:46:39.267Z,100659.00
2018-10-02T13:49:09.403Z,100663.00
2018-10-02T13:51:39.406Z,100667.00
2018-10-02T13:54:10.015Z,100656.00
2018-10-02T13:56:40.525Z,100659.00
2018-10-02T13:59:10.639Z,100639.00
2018-10-02T14:01:40.781Z,100640.00
2018-10-02T14:04:10.774Z,100640.00
2018-10-02T14:06:40.798Z,100628.00
2018-10-02T14:09:11.009Z,100637.00
2018-10-02T14:11:41.117Z,100639.00
2018-10-02T14:14:11.490Z,100657.00
2018-10-02T14:16:41.696Z,100654.00
2018-10-02T14:19:12.087Z,100655.00
2018-10-02T14:21:42.330Z,100662.00
2018-10-02T14:24:12.382Z,100670.00
2018-10-02T14:26:42.583Z,100669.00
2018-10-02T14:29:12.776Z,100678.00
2018-10-02T14:31:43.017Z,100663.00
2018-10-02T14:34:13.018Z,100664.00
2018-10-02T14:36:43.906Z,100670.00
2018-10-02T14:39:14.485Z,100666.00
2018-10-02T14:41:44.679Z,100659.00
2018-10-02T14:44:14.822Z,100674.00
2018-10-02T14:46:44.815Z,100659.00
2018-10-02T14:49:15.796Z,100658.00
2018-10-02T14:51:46.341Z,100659.00
2018-10-02T14:54:16.479Z,100672.00
2018-10-02T14:56:47.551Z,100643.00
2018-10-02T14:59:18.130Z,100648.00
2018-10-02T15:01:49.048Z,100652.00
2018-10-02T15:04:19.335Z,100663.00
2018-10-02T15:06:49.541Z,100653.00
2018-10-02T15:09:19.833Z,100657.00
2018-10-02T15:11:49.858Z,100661.00
2018-10-02T15:14:20.086Z,100658.00
2018-10-02T15:16:50.702Z,100673.00
2018-10-02T15:19:20.949Z,100672.00
2018-10-02T15:21:51.541Z,100679.00
2018-10-02T15:24:21.861Z,100691.00
2018-10-02T15:26:51.824Z,100694.00
2018-10-02T15:29:22.123Z,100682.00
2018-10-02T15:31:52.257Z,100684.00
2018-10-02T15:34:22.624Z,100690.00
2018-10-02T15:36:52.681Z,100684.00
2018-10-02T15:39:22.739Z,100680.00
2018-10-02T15:41:52.796Z,100683.00
2018-10-02T15:44:23.133Z,100689.00
2018-10-02T15:46:54.007Z,100691.00
2018-10-02T15:49:24.107Z,100694.00
2018-10-02T15:51:54.310Z,100703.00
2018-10-02T15:54:24.225Z,100692.00
2018-10-02T15:56:54.919Z,100697.00
2018-10-02T15:59:25.420Z,100691.00
2018-10-02T16:01:55.581Z,100689.00
2018-10-02T16:04:25.823Z,100699.00
2018-10-02T16:06:56.106Z,100686.00
2018-10-02T16:09:26.280Z,100691.00
2018-10-02T16:11:56.507Z,100690.00
2018-10-02T16:14:26.715Z,100694.00
2018-10-02T16:16:57.119Z,100689.00
2018-10-02T16:19:27.035Z,100699.00
2018-10-02T16:21:56.994Z,100709.00
2018-10-02T16:24:27.277Z,100713.00
2018-10-02T16:26:57.542Z,100706.00
2018-10-02T16:29:27.735Z,100708.00
2018-10-02T16:31:57.986Z,100712.00
2018-10-02T16:34:28.121Z,100733.00
2018-10-02T16:36:58.347Z,100721.00
2018-10-02T16:39:28.637Z,100734.00
2018-10-02T16:41:58.874Z,100727.00
2018-10-02T16:44:29.088Z,100735.00
2018-10-02T16:46:59.253Z,100732.00
2018-10-02T16:49:30.501Z,100755.00
2018-10-02T16:52:00.684Z,100753.00
2018-10-02T16:54:30.935Z,100762.00
2018-10-02T16:57:01.022Z,100766.00
2018-10-02T16:59:34.299Z,100755.00
2018-10-02T17:02:05.309Z,100765.00
2018-10-02T17:04:36.285Z,100775.00
2018-10-02T17:07:06.602Z,100769.00
2018-10-02T17:09:37.190Z,100762.00
2018-10-02T17:12:07.481Z,100776.00
2018-10-02T17:14:37.499Z,100775.00
2018-10-02T17:17:07.651Z,100778.00
2018-10-02T17:19:37.747Z,100767.00
2018-10-02T17:22:08.153Z,100784.00
2018-10-02T17:24:38.501Z,100779.00
2018-10-02T17:27:08.624Z,100775.00
2018-10-02T17:29:39.053Z,100775.00
2018-10-02T17:32:10.678Z,100781.00
2018-10-02T17:34:41.617Z,100789.00
2018-10-02T17:37:13.963Z,100799.00
2018-10-02T17:57:43.416Z,100797.00
2018-10-02T18:00:13.586Z,100798.00
2018-10-02T18:02:43.775Z,100813.00
2018-10-02T18:05:14.355Z,100814.00
2018-10-02T18:07:44.407Z,100812.00
2018-10-02T18:10:14.881Z,100820.00
2018-10-02T18:12:44.900Z,100806.00
2018-10-02T18:15:15.088Z,100821.00
2018-10-02T18:17:45.345Z,100827.00
2018-10-02T18:20:16.651Z,100831.00
2018-10-02T18:22:46.833Z,100823.00
2018-10-02T18:25:16.907Z,100827.00
2018-10-02T18:27:47.130Z,100829.00
2018-10-02T18:30:17.205Z,100826.00
2018-10-02T18:32:47.319Z,100827.00
2018-10-02T18:35:17.795Z,100831.00
2018-10-02T18:37:48.015Z,100850.00
2018-10-02T18:40:19.328Z,100839.00
2018-10-02T18:42:49.858Z,100839.00
2018-10-02T18:45:19.904Z,100833.00
2018-10-02T18:47:50.450Z,100831.00
2018-10-02T18:50:21.121Z,100831.00
2018-10-02T18:52:51.326Z,100836.00
2018-10-02T18:55:21.422Z,100834.00
2018-10-02T18:57:51.896Z,100827.00
2018-10-02T19:00:23.137Z,100851.00
2018-10-02T19:02:54.438Z,100844.00
2018-10-02T19:05:26.679Z,100856.00
2018-10-02T19:07:56.976Z,100856.00
2018-10-02T19:10:27.247Z,100860.00
2018-10-02T19:12:57.411Z,100858.00
2018-10-02T19:15:30.920Z,100860.00
2018-10-02T19:18:01.329Z,100869.00
2018-10-02T19:20:36.557Z,100863.00
2018-10-02T19:23:07.075Z,100873.00
2018-10-02T19:25:42.142Z,100866.00
2018-10-02T19:28:13.212Z,100860.00
2018-10-02T19:30:48.549Z,100864.00
2018-10-02T19:33:18.951Z,100867.00
2018-10-02T19:35:55.808Z,100871.00
2018-10-02T19:38:31.143Z,100878.00
2018-10-02T19:41:01.495Z,100879.00
2018-10-02T19:43:31.709Z,100892.00
2018-10-02T19:46:07.173Z,100892.00
2018-10-02T19:48:37.238Z,100895.00
2018-10-02T19:53:14.089Z,100891.00
2018-10-02T19:55:44.245Z,100894.00
2018-10-02T19:58:14.832Z,100908.00
2018-10-02T20:00:45.762Z,100900.00
2018-10-02T20:03:15.873Z,100892.00
2018-10-02T20:05:46.201Z,100895.00
2018-10-02T20:08:16.596Z,100898.00
2018-10-02T20:10:46.789Z,100911.00
2018-10-02T20:13:17.455Z,100882.00
2018-10-02T20:15:47.880Z,100890.00
2018-10-02T20:18:18.344Z,100887.00
2018-10-02T20:20:48.357Z,100889.00
2018-10-02T20:23:18.666Z,100883.00
2018-10-02T20:25:48.852Z,100885.00
2018-10-02T20:28:19.056Z,100866.00
2018-10-02T20:30:49.420Z,100875.00
2018-10-02T20:33:26.306Z,100877.00
2018-10-02T20:35:56.425Z,100878.00
2018-10-02T20:38:26.435Z,100882.00
2018-10-02T20:40:56.674Z,100887.00
2018-10-02T20:43:26.880Z,100884.00
2018-10-02T20:45:57.215Z,100888.00
2018-10-02T20:48:27.617Z,100900.00
2018-10-02T20:50:57.954Z,100903.00
2018-10-02T20:53:27.978Z,100901.00
2018-10-02T20:55:58.038Z,100899.00
2018-10-02T20:58:28.215Z,100896.00
2018-10-02T21:00:58.664Z,100896.00
2018-10-02T21:03:29.253Z,100896.00
2018-10-02T21:05:59.700Z,100894.00
2018-10-02T21:08:30.054Z,100893.00
2018-10-02T21:11:00.270Z,100903.00
2018-10-02T21:13:30.715Z,100901.00
2018-10-02T21:16:01.022Z,100903.00
2018-10-02T21:18:31.620Z,100905.00
2018-10-02T21:21:01.827Z,100912.00
2018-10-02T21:23:32.304Z,100921.00
2018-10-02T21:26:03.094Z,100915.00
2018-10-02T21:28:33.256Z,100920.00
2018-10-02T21:31:04.451Z,100921.00
2018-10-02T21:33:34.719Z,100922.00
2018-10-02T21:36:05.495Z,100919.00
2018-10-02T21:38:38.995Z,100920.00
2018-10-02T21:41:09.140Z,100912.00
2018-10-02T21:43:40.121Z,100911.00
2018-10-02T21:46:10.768Z,100907.00
2018-10-02T21:48:41.007Z,100908.00
2018-10-02T21:51:12.295Z,100925.00
2018-10-02T21:53:42.299Z,100920.00
2018-10-02T21:56:12.875Z,100915.00
2018-10-02T21:58:43.417Z,100915.00
2018-10-02T22:01:20.378Z,100912.00
2018-10-02T22:03:50.907Z,100910.00
2018-10-02T22:06:21.121Z,100919.00
2018-10-02T22:08:51.664Z,100920.00
2018-10-02T22:11:22.064Z,100921.00
2018-10-02T22:13:52.375Z,100916.00
2018-10-02T22:16:22.731Z,100924.00
2018-10-02T22:18:53.598Z,100919.00
2018-10-02T22:21:23.544Z,100926.00
2018-10-02T22:23:53.532Z,100920.00
2018-10-02T22:26:24.166Z,100939.00
2018-10-02T22:28:54.374Z,100927.00
2018-10-02T22:31:24.772Z,100928.00
2018-10-02T22:33:55.119Z,100927.00
2018-10-02T22:36:25.220Z,100937.00
2018-10-02T22:38:55.225Z,100932.00
2018-10-02T22:41:25.674Z,100938.00
2018-10-02T22:43:55.679Z,100936.00
2018-10-02T22:46:26.090Z,100953.00
2018-10-02T22:48:56.069Z,100954.00
2018-10-02T22:51:26.317Z,100951.00
2018-10-02T22:53:56.956Z,100955.00
2018-10-02T22:56:27.138Z,100951.00
2018-10-02T22:58:57.167Z,100955.00
2018-10-02T23:01:27.114Z,100956.00
2018-10-02T23:04:00.224Z,100943.00
2018-10-02T23:06:30.577Z,100946.00
2018-10-02T23:09:00.919Z,100945.00
2018-10-02T23:11:31.379Z,100942.00
2018-10-02T23:14:01.920Z,100942.00
2018-10-02T23:16:33.694Z,100864.00
2018-10-02T23:19:04.079Z,100950.00
2018-10-02T23:21:35.234Z,100948.00
2018-10-02T23:24:06.106Z,100952.00
2018-10-02T23:26:36.213Z,100960.00
2018-10-02T23:29:06.586Z,100966.00
2018-10-02T23:31:36.868Z,100982.00
2018-10-02T23:34:06.964Z,100981.00
2018-10-02T23:36:37.182Z,100977.00
2018-10-02T23:39:13.576Z,100967.00
2018-10-02T23:41:43.871Z,100967.00
2018-10-02T23:44:14.020Z,100976.00
2018-10-02T23:46:46.961Z,100968.00
2018-10-02T23:49:17.582Z,100980.00
2018-10-02T23:51:47.597Z,100975.00
2018-10-02T23:54:18.419Z,100981.00
2018-10-02T23:56:48.718Z,100988.00
2018-10-02T23:59:19.426Z,100992.00
